Time;durP1;ratioP1;P1;durP2;ratioP2;P2;SDS_P1;SDS_P2;PMS_P1;PMS_P2;Temp;Humidity;BMP_temperature;BMP_pressure;BME280_temperature;BME280_humidity;BME280_pressure;Samples;Min_cycle;Max_cycle;Signal;HPM_P1;HPM_P2
2023/07/16 00:01:24;;;;;;;26.70;7.25;;;;;;;25.31;77.38;100955.59;5049499;28;20029;-81
2023/07/16 00:03:50;;;;;;;11.73;6.43;;;;;;;25.22;77.60;100948.59;5049557;28;20409;-83
2023/07/16 00:06:15;;;;;;;20.17;8.25;;;;;;;25.20;77.93;100947.94;5049482;28;20379;-81
2023/07/16 00:08:41;;;;;;;9.77;6.72;;;;;;;25.22;77.75;100946.69;5049110;28;20392;-80
2023/07/16 00:11:06;;;;;;;21.92;7.60;;;;;;;25.21;77.72;100955.16;5049556;28;20034;-80
2023/07/16 00:13:32;;;;;;;24.50;8.40;;;;;;;25.25;78.00;100959.19;5049301;28;20436;-81
2023/07/16 00:15:57;;;;;;;14.60;7.20;;;;;;;25.23;77.89;100953.03;5049396;28;20033;-83
2023/07/16 00:18:22;;;;;;;28.20;8.57;;;;;;;25.18;77.88;100945.41;5049419;28;20025;-81
2023/07/16 00:20:48;;;;;;;34.72;8.35;;;;;;;25.16;77.73;100947.53;5049503;28;20115;-84
2023/07/16 00:23:13;;;;;;;26.13;9.38;;;;;;;25.19;77.93;100951.78;5049658;28;20017;-82
2023/07/16 00:25:39;;;;;;;27.08;7.93;;;;;;;25.15;77.93;100934.84;5049334;28;20028;-80
2023/07/16 00:28:04;;;;;;;27.23;7.18;;;;;;;25.22;77.81;100946.69;5049661;28;20055;-81
2023/07/16 00:30:29;;;;;;;26.17;5.60;;;;;;;25.17;77.84;100931.84;5049219;28;20418;-83
2023/07/16 00:32:55;;;;;;;15.25;6.43;;;;;;;25.19;77.89;100940.75;5049275;28;20021;-80
2023/07/16 00:35:20;;;;;;;16.30;7.90;;;;;;;25.14;77.99;100929.53;5048750;28;20025;-81
2023/07/16 00:37:46;;;;;;;17.52;7.43;;;;;;;25.17;77.79;100937.34;5049253;28;20037;-81
2023/07/16 00:40:11;;;;;;;21.42;7.22;;;;;;;25.12;77.79;100931.66;5048108;28;20021;-81
2023/07/16 00:42:37;;;;;;;15.23;6.65;;;;;;;25.16;77.68;100935.69;5048825;28;20039;-82
2023/07/16 00:45:08;;;;;;;26.25;7.90;;;;;;;25.15;77.64;100939.47;5049088;28;20021;-81
2023/07/16 00:47:34;;;;;;;31.73;7.47;;;;;;;25.15;77.72;100933.97;5049964;28;20086;-81
2023/07/16 00:49:59;;;;;;;18.95;6.07;;;;;;;25.01;78.21;100924.88;5050048;28;20111;-79
2023/07/16 00:52:25;;;;;;;19.33;7.03;;;;;;;25.00;78.79;100917.69;5049783;28;20044;-79
2023/07/16 00:54:50;;;;;;;10.02;5.88;;;;;;;25.03;78.59;100924.66;5050029;28;20743;-81
2023/07/16 00:57:16;;;;;;;15.48;6.57;;;;;;;25.06;78.74;100929.75;5050085;28;20031;-80
2023/07/16 00:59:41;;;;;;;16.98;6.78;;;;;;;25.02;78.73;100922.97;5049874;28;20032;-81
2023/07/16 01:02:07;;;;;;;24.35;6.88;;;;;;;25.01;79.15;100922.13;5050064;28;20043;-82
2023/07/16 01:04:32;;;;;;;18.88;6.10;;;;;;;24.98;79.18;100922.56;5049821;28;20116;-81
2023/07/16 01:07:04;;;;;;;12.65;5.60;;;;;;;24.95;79.01;100916.63;5049785;28;20485;-81
2023/07/16 01:09:30;;;;;;;14.98;5.63;;;;;;;24.92;79.21;100918.72;5049626;28;20455;-81
2023/07/16 01:12:00;;;;;;;16.02;6.05;;;;;;;24.91;79.64;100913.44;5049990;28;20025;-81
2023/07/16 01:14:25;;;;;;;15.23;6.38;;;;;;;24.86;79.48;100905.81;5049976;28;20025;-80
2023/07/16 01:16:53;;;;;;;9.65;6.65;;;;;;;24.92;79.17;100917.06;5049327;28;20086;-84
2023/07/16 01:19:18;;;;;;;12.52;6.30;;;;;;;24.89;79.61;100913.63;5049565;28;20106;-81
2023/07/16 01:21:43;;;;;;;7.65;5.95;;;;;;;24.89;79.37;100915.56;5050138;28;20489;-81
2023/07/16 01:24:27;;;;;;;7.55;5.93;;;;;;;24.85;79.53;100901.38;5051132;28;20036;-81
2023/07/16 01:27:20;;;;;;;9.38;6.05;;;;;;;24.91;79.71;100910.69;5051513;28;20029;-81
2023/07/16 01:29:54;;;;;;;11.13;5.72;;;;;;;24.83;79.80;100897.97;5053537;28;20562;-79
2023/07/16 01:32:21;;;;;;;13.23;5.47;;;;;;;24.73;80.15;100886.53;5051248;28;20096;-82
2023/07/16 01:34:48;;;;;;;7.05;5.15;;;;;;;24.88;80.09;100911.97;5050341;28;20021;-81
2023/07/16 01:37:13;;;;;;;16.67;5.10;;;;;;;24.88;79.80;100900.97;5049574;28;20580;-81
2023/07/16 01:39:40;;;;;;;10.57;5.93;;;;;;;24.84;80.15;100893.31;5049893;28;20223;-86
2023/07/16 01:42:05;;;;;;;10.45;5.05;;;;;;;24.92;79.99;100899.47;5049266;28;20028;-81
2023/07/16 01:44:31;;;;;;;10.80;5.65;;;;;;;24.80;80.00;100876.34;5049372;28;20086;-81
2023/07/16 01:47:02;;;;;;;19.48;6.57;;;;;;;24.87;80.13;100880.00;5049051;28;20114;-81
2023/07/16 01:49:28;;;;;;;15.63;7.33;;;;;;;24.77;80.21;100876.78;5049365;28;20036;-81
2023/07/16 01:51:54;;;;;;;19.15;5.95;;;;;;;24.85;80.02;100884.88;5050573;28;20263;-80
2023/07/16 01:54:20;;;;;;;15.40;6.05;;;;;;;24.86;80.12;100886.53;5049148;28;20017;-81
2023/07/16 01:56:45;;;;;;;14.90;6.18;;;;;;;24.83;80.21;100881.47;5048351;28;20017;-82
2023/07/16 01:59:10;;;;;;;14.98;7.97;;;;;;;24.81;80.29;100891.84;5048308;28;20033;-81
2023/07/16 02:01:36;;;;;;;11.27;6.00;;;;;;;24.84;80.34;100893.31;5048832;28;20029;-85
2023/07/16 02:04:01;;;;;;;8.20;5.90;;;;;;;24.82;79.97;100893.56;5048615;28;20025;-82
2023/07/16 02:06:27;;;;;;;12.18;6.47;;;;;;;24.82;80.29;100890.81;5048283;28;20428;-82
2023/07/16 02:08:52;;;;;;;13.25;5.72;;;;;;;24.76;80.36;100885.25;5048068;28;20033;-81
2023/07/16 02:11:18;;;;;;;17.30;5.82;;;;;;;24.82;80.42;100895.44;5048054;28;20104;-82
2023/07/16 02:13:43;;;;;;;9.25;5.32;;;;;;;24.77;80.65;100904.28;5047995;28;20025;-81
2023/07/16 02:16:08;;;;;;;12.65;5.50;;;;;;;24.76;80.82;100899.00;5047942;28;20032;-80
2023/07/16 02:18:34;;;;;;;10.65;5.97;;;;;;;24.74;81.31;100899.22;5048259;28;20036;-83
2023/07/16 02:20:59;;;;;;;10.25;5.15;;;;;;;24.78;81.25;100896.88;5048089;28;20064;-82
2023/07/16 02:23:25;;;;;;;17.95;6.32;;;;;;;24.71;81.37;100896.88;5049389;28;20220;-81
2023/07/16 02:25:50;;;;;;;20.60;5.90;;;;;;;24.72;82.00;100903.22;5051784;28;20036;-85
2023/07/16 02:28:15;;;;;;;18.02;6.57;;;;;;;24.66;82.23;100907.69;5051827;28;20478;-82
2023/07/16 02:30:41;;;;;;;17.73;6.47;;;;;;;24.58;82.35;100899.63;5051264;28;20029;-81
2023/07/16 02:33:07;;;;;;;11.88;6.60;;;;;;;24.60;82.82;100900.25;5051737;28;20044;-83
2023/07/16 02:35:32;;;;;;;11.25;5.72;;;;;;;24.60;83.32;100897.50;5051699;28;20061;-80
2023/07/16 02:37:58;;;;;;;16.73;6.05;;;;;;;24.66;83.69;100902.19;5051376;28;20059;-82
2023/07/16 02:40:23;;;;;;;44.60;9.38;;;;;;;24.66;83.68;100906.81;5051427;28;20025;-81
2023/07/16 02:42:48;;;;;;;13.18;6.55;;;;;;;24.62;83.96;100903.63;5051408;28;20032;-81
2023/07/16 02:45:14;;;;;;;17.00;7.25;;;;;;;24.58;84.26;100910.63;5050960;28;20051;-85
2023/07/16 02:47:39;;;;;;;15.50;7.68;;;;;;;24.60;84.44;100905.75;5051212;28;20059;-82
2023/07/16 02:50:05;;;;;;;21.38;6.50;;;;;;;24.55;84.45;100891.81;5049578;28;20493;-85
2023/07/16 02:52:31;;;;;;;14.45;6.28;;;;;;;24.58;84.34;100899.63;5050653;28;20021;-81
2023/07/16 02:54:56;;;;;;;25.13;7.72;;;;;;;24.56;84.27;100898.13;5050728;28;20025;-87
2023/07/16 02:57:22;;;;;;;12.25;6.35;;;;;;;24.55;84.26;100900.06;5050972;28;20114;-80
2023/07/16 02:59:48;;;;;;;11.75;6.18;;;;;;;24.56;84.35;100901.72;5051059;28;20025;-83
2023/07/16 03:02:13;;;;;;;13.90;6.43;;;;;;;24.56;84.51;100890.72;5050820;28;20849;-83
2023/07/16 03:04:39;;;;;;;17.00;6.05;;;;;;;24.62;83.96;100902.78;5050980;28;20025;-80
2023/07/16 03:07:05;;;;;;;13.80;5.55;;;;;;;24.60;83.91;100903.00;5050439;28;20044;-80
2023/07/16 03:09:30;;;;;;;16.17;6.25;;;;;;;24.55;83.99;100901.94;5050768;28;20029;-82
2023/07/16 03:11:56;;;;;;;13.80;6.47;;;;;;;24.55;84.26;100908.31;5049421;28;20408;-80
2023/07/16 03:14:21;;;;;;;23.45;9.20;;;;;;;24.52;84.31;100900.47;5050832;28;20032;-83
2023/07/16 03:16:46;;;;;;;26.00;8.30;;;;;;;24.50;83.86;100908.06;5050464;28;20465;-81
2023/07/16 03:19:12;;;;;;;16.08;6.28;;;;;;;24.55;83.92;100915.72;5050317;28;20024;-81
2023/07/16 03:21:37;;;;;;;16.20;7.78;;;;;;;24.52;84.33;100911.47;5050546;28;20094;-82
2023/07/16 03:24:03;;;;;;;13.45;6.50;;;;;;;24.53;84.01;100913.16;5048961;28;20017;-80
2023/07/16 03:26:29;;;;;;;19.15;6.68;;;;;;;24.47;83.97;100910.38;5049237;28;20039;-82
2023/07/16 03:28:55;;;;;;;25.48;7.35;;;;;;;24.55;83.97;100922.06;5050347;28;20067;-81
2023/07/16 03:31:20;;;;;;;29.50;7.30;;;;;;;24.54;84.25;100914.84;5050122;28;20067;-82
2023/07/16 03:33:46;;;;;;;22.80;7.72;;;;;;;24.62;84.01;100924.78;5050236;28;20048;-82
2023/07/16 03:36:11;;;;;;;20.67;8.07;;;;;;;24.62;83.92;100909.16;5049928;28;20781;-82
2023/07/16 03:38:37;;;;;;;22.35;7.78;;;;;;;24.60;83.87;100896.66;5050181;28;20095;-81
2023/07/16 03:41:02;;;;;;;8.50;6.03;;;;;;;24.72;83.78;100917.00;5049893;28;20112;-85
2023/07/16 03:43:27;;;;;;;27.58;8.63;;;;;;;24.71;83.90;100905.13;5050175;28;20029;-82
2023/07/16 03:45:53;;;;;;;16.27;6.38;;;;;;;24.79;83.84;100913.19;5050121;28;20041;-81
2023/07/16 03:48:18;;;;;;;27.02;8.88;;;;;;;24.81;83.59;100913.84;5049962;28;20421;-81
2023/07/16 03:50:44;;;;;;;15.77;6.72;;;;;;;24.85;83.52;100908.78;5049852;28;20033;-83
2023/07/16 03:53:09;;;;;;;27.30;7.10;;;;;;;24.86;83.37;100908.56;5049749;28;20021;-81
2023/07/16 03:55:35;;;;;;;16.98;6.70;;;;;;;24.87;83.13;100915.78;5050612;28;20033;-80
2023/07/16 03:58:01;;;;;;;25.70;7.28;;;;;;;24.82;83.07;100907.31;5060047;28;20033;-89
2023/07/16 04:00:26;;;;;;;14.82;7.43;;;;;;;24.83;83.42;100908.97;5061320;28;20098;-91
2023/07/16 04:02:52;;;;;;;21.85;6.70;;;;;;;24.96;83.07;100915.53;5056194;28;20025;-89
2023/07/16 04:05:18;;;;;;;29.80;8.77;;;;;;;25.00;82.62;100920.44;5056006;28;20040;-90
2023/07/16 04:07:43;;;;;;;24.27;8.27;;;;;;;25.08;82.68;100922.13;5053769;28;20124;-87
2023/07/16 04:10:09;;;;;;;28.80;8.93;;;;;;;25.16;82.75;100927.41;5046893;28;20108;-86
2023/07/16 04:12:34;;;;;;;19.98;7.18;;;;;;;25.17;83.04;100931.84;5048460;28;20017;-85
2023/07/16 04:15:00;;;;;;;38.42;9.05;;;;;;;25.16;83.14;100930.19;5048648;28;20036;-84
2023/07/16 04:17:26;;;;;;;20.90;7.72;;;;;;;25.25;83.08;100928.91;5048399;28;20029;-84
2023/07/16 04:19:51;;;;;;;14.75;6.43;;;;;;;25.36;82.51;100922.72;5048686;28;20037;-85
2023/07/16 04:22:16;;;;;;;34.70;15.30;;;;;;;25.44;82.29;100936.28;5056525;28;20035;-86
2023/07/16 04:24:42;;;;;;;23.88;8.23;;;;;;;25.51;82.39;100939.03;5061922;28;20021;-85
2023/07/16 04:27:07;;;;;;;14.43;6.82;;;;;;;25.50;82.68;100932.72;5051271;28;20527;-85
2023/07/16 04:29:33;;;;;;;12.65;6.05;;;;;;;25.65;81.71;100949.00;5048029;28;20028;-87
2023/07/16 04:31:58;;;;;;;11.35;5.65;;;;;;;25.66;80.38;100932.25;5048343;28;20035;-90
2023/07/16 04:34:24;;;;;;;14.43;6.53;;;;;;;25.65;79.80;100935.22;5049506;28;20025;-88
2023/07/16 04:36:50;;;;;;;13.32;5.63;;;;;;;25.72;78.63;100936.88;5051314;28;20601;-89
2023/07/16 04:39:15;;;;;;;10.00;5.70;;;;;;;25.70;78.65;100932.66;5052474;28;20029;-91
2023/07/16 04:41:40;;;;;;;12.00;5.55;;;;;;;25.76;78.37;100938.16;5049720;28;20029;-89
2023/07/16 04:44:06;;;;;;;19.23;5.85;;;;;;;25.75;78.45;100930.94;5049042;28;20433;-85
2023/07/16 04:46:32;;;;;;;17.05;5.45;;;;;;;25.89;78.13;100937.28;5047032;28;20033;-86
2023/07/16 04:48:57;;;;;;;13.63;6.25;;;;;;;25.98;77.39;100949.75;5048855;28;20017;-85
2023/07/16 04:51:22;;;;;;;9.80;5.57;;;;;;;25.98;76.39;100938.72;5048825;28;20025;-88
2023/07/16 04:53:48;;;;;;;7.97;5.13;;;;;;;26.12;76.13;100948.63;5048633;28;20039;-85
2023/07/16 04:56:15;;;;;;;11.77;5.80;;;;;;;26.19;76.17;100943.97;5047453;28;20040;-91
2023/07/16 04:58:41;;;;;;;11.27;5.05;;;;;;;26.23;75.15;100931.44;5048909;28;20054;-91
2023/07/16 05:01:09;;;;;;;10.68;4.90;;;;;;;26.33;74.88;100939.22;5049641;28;20553;-86
2023/07/16 05:03:34;;;;;;;11.95;5.43;;;;;;;26.45;74.12;100948.53;5047518;28;20032;-82
2023/07/16 05:06:00;;;;;;;41.35;9.27;;;;;;;26.41;72.45;100950.88;5047610;28;20424;-83
2023/07/16 05:08:26;;;;;;;9.80;5.13;;;;;;;26.50;72.63;100951.44;5047054;28;20476;-78
2023/07/16 05:10:51;;;;;;;8.00;4.32;;;;;;;26.55;71.02;100962.66;5046991;28;21162;-79
2023/07/16 05:13:17;;;;;;;10.05;4.95;;;;;;;26.58;69.47;100953.09;5048422;28;20382;-90
2023/07/16 05:15:48;;;;;;;9.93;5.07;;;;;;;26.56;69.71;100927.66;5050617;28;20028;-90
2023/07/16 05:18:13;;;;;;;8.57;4.85;;;;;;;26.74;69.22;100953.44;5048079;28;20047;-84
2023/07/16 05:20:38;;;;;;;8.77;5.07;;;;;;;26.84;68.68;100964.00;5046772;28;20481;-78
2023/07/16 05:23:04;;;;;;;12.15;5.28;;;;;;;26.96;69.31;100960.31;5056225;28;20028;-84
2023/07/16 05:25:29;;;;;;;189.25;25.17;;;;;;;26.98;69.64;100949.88;5060726;28;20024;-85
2023/07/16 05:27:55;;;;;;;25.98;12.45;;;;;;;27.11;70.02;100956.38;5069629;28;20029;-82
2023/07/16 05:30:21;;;;;;;15.07;9.13;;;;;;;27.21;69.80;100965.00;5052429;28;20028;-87
2023/07/16 05:32:46;;;;;;;13.23;6.40;;;;;;;27.11;69.05;100943.41;5049162;28;20025;-86
2023/07/16 05:35:12;;;;;;;17.42;6.03;;;;;;;27.16;66.62;100962.06;5046484;28;20116;-85
2023/07/16 05:37:38;;;;;;;14.32;4.70;;;;;;;27.09;65.04;100941.94;5056035;28;20061;-92
2023/07/16 05:40:04;;;;;;;7.75;5.13;;;;;;;27.27;65.98;100961.34;5069184;28;20474;-92
2023/07/16 05:42:30;;;;;;;14.75;5.38;;;;;;;27.33;66.46;100971.47;5046293;28;20186;-84
2023/07/16 05:44:55;;;;;;;20.05;5.90;;;;;;;27.46;66.98;100965.88;5042953;28;20500;-82
2023/07/16 05:47:20;;;;;;;10.68;5.25;;;;;;;27.47;66.29;100965.63;5039717;28;20025;-85
2023/07/16 05:49:46;;;;;;;13.38;4.78;;;;;;;27.41;65.26;100972.03;5047967;28;20042;-91
2023/07/16 05:52:12;;;;;;;11.52;4.80;;;;;;;27.35;66.06;100961.91;5048427;28;20041;-87
2023/07/16 05:54:40;;;;;;;10.05;4.32;;;;;;;27.28;66.84;100960.25;5052050;28;20072;-96
2023/07/16 05:57:06;;;;;;;6.80;3.88;;;;;;;27.29;67.18;100950.91;5058574;28;20024;-91
2023/07/16 05:59:36;;;;;;;9.02;5.05;;;;;;;27.33;65.47;100963.19;5095310;28;20016;-87
2023/07/16 06:02:03;;;;;;;13.70;4.68;;;;;;;27.47;62.65;100981.38;5087371;28;20024;-80
2023/07/16 06:04:29;;;;;;;10.18;4.68;;;;;;;27.47;63.50;100973.94;5071081;28;20416;-81
2023/07/16 06:06:54;;;;;;;9.18;4.13;;;;;;;27.39;64.00;100945.72;5070626;28;20117;-79
2023/07/16 06:09:20;;;;;;;14.68;5.07;;;;;;;27.58;64.32;100977.88;5063041;28;20064;-80
2023/07/16 06:11:49;;;;;;;14.15;4.70;;;;;;;27.58;65.04;100970.41;5056738;28;20112;-82
2023/07/16 06:14:15;;;;;;;13.57;4.90;;;;;;;27.52;62.81;100976.84;5052590;28;20519;-80
2023/07/16 06:16:40;;;;;;;11.90;4.82;;;;;;;27.46;63.12;100963.13;5054445;28;20025;-85
2023/07/16 06:19:05;;;;;;;12.13;4.30;;;;;;;27.59;62.44;100962.97;5061789;28;20020;-86
2023/07/16 06:21:31;;;;;;;9.27;4.93;;;;;;;27.77;62.00;100960.22;5063592;28;20491;-83
2023/07/16 06:23:56;;;;;;;14.10;5.05;;;;;;;27.84;61.43;100954.63;5056839;28;20098;-86
2023/07/16 06:26:24;;;;;;;10.13;5.57;;;;;;;27.95;63.08;100971.28;5050593;28;20037;-84
2023/07/16 06:28:50;;;;;;;15.02;4.95;;;;;;;27.93;64.22;100962.38;5062636;28;20109;-84
2023/07/16 06:31:38;;;;;;;11.52;5.35;;;;;;;27.97;61.68;100971.94;5086465;28;20559;-91
2023/07/16 06:34:03;;;;;;;12.63;4.82;;;;;;;27.94;64.56;100975.16;5091782;28;20041;-87
2023/07/16 06:36:29;;;;;;;24.38;6.00;;;;;;;27.90;64.17;100960.09;5094777;28;20036;-84
2023/07/16 06:38:54;;;;;;;17.10;5.15;;;;;;;27.81;64.57;100955.09;5092766;28;20078;-86
2023/07/16 06:41:19;;;;;;;14.90;5.80;;;;;;;28.07;65.85;100966.72;5080985;28;20040;-88
2023/07/16 06:43:45;;;;;;;33.45;8.82;;;;;;;28.03;65.35;100968.22;5086320;28;20036;-84
2023/07/16 06:46:10;;;;;;;23.63;4.82;;;;;;;28.07;66.08;100950.13;5083907;28;20179;-84
2023/07/16 06:48:36;;;;;;;7.18;4.10;;;;;;;28.23;67.05;100973.53;5076992;28;20613;-85
2023/07/16 06:51:01;;;;;;;19.05;5.18;;;;;;;28.17;66.81;100966.16;5082894;28;20092;-88
2023/07/16 06:53:27;;;;;;;12.10;5.43;;;;;;;27.84;67.05;100961.00;5094394;28;20040;-87
2023/07/16 06:55:52;;;;;;;8.23;4.32;;;;;;;27.97;67.42;100971.06;5080037;28;20116;-84
2023/07/16 06:58:18;;;;;;;12.60;5.18;;;;;;;27.79;67.35;100958.09;5084605;28;20111;-87
2023/07/16 07:00:43;;;;;;;9.93;5.40;;;;;;;27.83;68.57;100970.34;5087186;28;20033;-87
2023/07/16 07:03:09;;;;;;;10.00;5.45;;;;;;;27.85;68.83;100973.75;5076464;28;20025;-85
2023/07/16 07:05:36;;;;;;;5.75;4.30;;;;;;;27.82;69.33;100963.16;5073393;28;20024;-88
2023/07/16 07:08:02;;;;;;;13.27;5.72;;;;;;;28.04;69.33;100981.00;5077989;28;20039;-82
2023/07/16 07:10:28;;;;;;;9.75;4.70;;;;;;;28.14;69.21;100985.16;5051288;28;20078;-77
2023/07/16 07:12:53;;;;;;;7.63;4.38;;;;;;;28.07;69.68;100982.50;5055596;28;20073;-85
2023/07/16 07:15:19;;;;;;;21.85;6.40;;;;;;;28.13;70.90;100980.72;5064297;28;20092;-78
2023/07/16 07:17:46;;;;;;;12.98;5.03;;;;;;;28.12;70.37;100979.00;5068746;28;20025;-90
2023/07/16 07:20:13;;;;;;;23.90;5.65;;;;;;;28.15;70.43;100961.94;5075932;28;20025;-90
2023/07/16 07:22:38;;;;;;;20.63;5.97;;;;;;;28.31;69.39;100981.53;5074397;28;20202;-91
2023/07/16 07:25:04;;;;;;;6.07;4.18;;;;;;;28.33;68.80;100990.44;5074900;28;20052;-92
2023/07/16 07:27:30;;;;;;;7.18;4.20;;;;;;;28.30;69.16;100992.81;5074725;28;20028;-88
2023/07/16 07:30:18;;;;;;;11.43;4.13;;;;;;;28.07;68.68;100993.53;5090211;28;20122;-83
2023/07/16 07:32:43;;;;;;;11.50;4.97;;;;;;;28.09;68.71;100992.25;5075084;28;20036;-85
2023/07/16 07:35:09;;;;;;;7.40;4.07;;;;;;;28.10;68.37;100982.84;5076852;28;20032;-86
2023/07/16 07:37:34;;;;;;;8.98;4.22;;;;;;;28.01;69.01;100988.91;5076794;28;20153;-81
2023/07/16 07:40:00;;;;;;;11.27;6.43;;;;;;;28.04;68.82;100993.97;5074419;28;20545;-86
2023/07/16 07:42:26;;;;;;;13.65;4.50;;;;;;;28.11;66.33;100989.22;5073628;28;20029;-87
2023/07/16 07:44:55;;;;;;;8.15;4.40;;;;;;;28.06;63.31;100983.56;5078333;28;20016;-88
2023/07/16 07:47:23;;;;;;;10.57;4.18;;;;;;;27.98;60.90;100959.75;5074645;28;20078;-91
2023/07/16 07:49:49;;;;;;;12.30;3.45;;;;;;;28.27;61.43;101013.50;5078743;28;20059;-90
2023/07/16 07:52:15;;;;;;;21.13;4.72;;;;;;;28.19;62.82;100971.47;5093682;28;20036;-93
2023/07/16 07:54:41;;;;;;;8.63;4.18;;;;;;;28.40;62.10;100993.13;5082480;28;20492;-90
2023/07/16 07:57:07;;;;;;;10.85;4.75;;;;;;;28.29;61.66;100961.53;5059032;28;20036;-88
2023/07/16 07:59:32;;;;;;;7.07;3.63;;;;;;;28.49;61.75;100988.97;5071013;28;20397;-89
2023/07/16 08:01:58;;;;;;;6.82;3.83;;;;;;;28.45;59.68;100979.44;5072697;28;20474;-83
2023/07/16 08:04:25;;;;;;;13.38;3.80;;;;;;;28.41;56.98;101000.34;5070505;28;20052;-85
2023/07/16 08:06:53;;;;;;;11.38;4.55;;;;;;;28.41;55.12;101005.88;5052248;28;20102;-88
2023/07/16 08:09:18;;;;;;;5.13;3.00;;;;;;;28.41;54.98;101000.34;5069484;28;20032;-89
2023/07/16 08:11:44;;;;;;;12.77;3.67;;;;;;;28.55;55.05;101002.72;5076796;28;20047;-86
2023/07/16 08:14:10;;;;;;;11.32;3.75;;;;;;;28.59;53.70;101006.69;5064019;28;20044;-92
2023/07/16 08:16:35;;;;;;;10.77;3.35;;;;;;;28.67;54.38;101016.66;5052300;28;20033;-87
2023/07/16 08:19:01;;;;;;;10.80;3.50;;;;;;;28.60;52.69;101019.47;5053277;28;20044;-88
2023/07/16 08:21:26;;;;;;;9.15;4.28;;;;;;;28.60;52.52;101004.78;5053103;28;20029;-82
2023/07/16 08:23:52;;;;;;;9.73;3.30;;;;;;;28.46;49.93;101006.03;5051543;28;20411;-83
2023/07/16 08:26:17;;;;;;;5.60;2.70;;;;;;;28.45;52.54;101015.41;5051538;28;20435;-82
2023/07/16 08:28:43;;;;;;;6.70;2.90;;;;;;;28.39;56.10;101003.34;5057194;28;20040;-86
2023/07/16 08:31:11;;;;;;;9.80;3.72;;;;;;;28.59;55.77;101011.41;5069658;28;20056;-79
2023/07/16 08:33:37;;;;;;;5.47;3.45;;;;;;;28.66;54.37;101003.03;5072913;28;20028;-90
2023/07/16 08:36:03;;;;;;;7.60;2.60;;;;;;;28.71;54.22;101005.94;5072542;28;20131;-83
2023/07/16 08:38:28;;;;;;;8.20;4.55;;;;;;;28.85;53.43;100997.22;5071496;28;20119;-90
2023/07/16 08:40:54;;;;;;;13.57;4.70;;;;;;;28.92;52.92;101014.59;5071118;28;20039;-84
2023/07/16 08:43:20;;;;;;;11.30;3.22;;;;;;;29.08;53.32;101019.44;5072463;28;20076;-90
2023/07/16 08:45:46;;;;;;;8.15;3.70;;;;;;;29.20;50.36;101021.41;5072038;28;20029;-91
2023/07/16 08:48:12;;;;;;;4.40;2.92;;;;;;;29.05;50.29;101019.91;5072422;28;20036;-89
2023/07/16 08:50:38;;;;;;;15.20;3.60;;;;;;;29.10;47.26;101027.53;5058121;28;20774;-80
2023/07/16 08:53:07;;;;;;;10.77;4.18;;;;;;;29.23;49.79;101009.84;5050944;28;20477;-92
2023/07/16 08:55:34;;;;;;;14.95;4.10;;;;;;;29.26;50.77;101010.25;5054890;28;20045;-91
2023/07/16 08:58:01;;;;;;;11.80;7.07;;;;;;;29.16;48.20;100999.72;5052832;28;20032;-83
2023/07/16 09:00:27;;;;;;;6.90;4.43;;;;;;;29.02;51.77;100987.13;5053902;28;20029;-85
2023/07/16 09:02:53;;;;;;;5.45;3.85;;;;;;;29.05;52.25;101002.47;5053011;28;20021;-82
2023/07/16 09:05:22;;;;;;;15.68;3.67;;;;;;;29.08;53.58;101013.88;5051486;28;20038;-84
2023/07/16 09:07:48;;;;;;;14.85;3.25;;;;;;;29.15;47.20;101000.78;5060282;28;20470;-84
2023/07/16 09:10:14;;;;;;;11.98;3.97;;;;;;;29.09;46.92;101004.50;5056973;28;20025;-81
2023/07/16 09:12:46;;;;;;;9.90;3.25;;;;;;;29.10;49.00;101008.97;5048738;28;20025;-87
2023/07/16 09:15:12;;;;;;;;;;;;;;;29.18;50.97;101008.63;5050236;28;20379;-83
2023/07/16 09:17:38;;;;;;;9.52;3.42;;;;;;;29.31;51.34;100998.44;5049893;28;19956;-81
2023/07/16 09:20:06;;;;;;;15.55;4.43;;;;;;;29.45;51.41;100997.13;5049109;28;20467;-81
2023/07/16 09:22:33;;;;;;;14.80;4.00;;;;;;;29.57;51.60;101011.88;5048104;28;20028;-83
2023/07/16 09:25:00;;;;;;;11.38;3.58;;;;;;;29.53;49.02;101005.09;5046728;28;20024;-81
2023/07/16 09:27:31;;;;;;;8.57;3.15;;;;;;;29.56;51.44;101005.47;5048074;28;20033;-81
2023/07/16 09:29:56;;;;;;;5.68;2.60;;;;;;;29.68;50.30;101013.78;5058672;28;20025;-79
2023/07/16 09:32:22;;;;;;;12.25;3.15;;;;;;;29.76;51.02;101010.63;5056514;28;20025;-79
2023/07/16 09:34:51;;;;;;;9.88;3.85;;;;;;;29.80;48.27;101006.31;5054119;28;20025;-78
2023/07/16 09:37:18;;;;;;;5.95;3.30;;;;;;;29.90;51.99;101012.13;5049114;28;20064;-83
2023/07/16 09:39:46;;;;;;;5.70;2.78;;;;;;;29.92;49.87;101014.66;5048408;28;20164;-82
2023/07/16 09:42:12;;;;;;;6.18;3.40;;;;;;;29.70;48.18;101000.50;5048697;28;20420;-80
2023/07/16 09:44:38;;;;;;;8.60;3.35;;;;;;;29.63;49.46;100994.25;5047897;28;20036;-79
2023/07/16 09:47:04;;;;;;;13.25;4.65;;;;;;;29.76;51.57;101013.41;5050844;28;20032;-78
2023/07/16 09:49:30;;;;;;;8.55;2.95;;;;;;;29.66;49.61;100994.59;5057360;28;20115;-78
2023/07/16 09:52:01;;;;;;;5.32;3.20;;;;;;;29.78;48.66;101002.94;5054026;28;20040;-82
2023/07/16 09:54:32;;;;;;;7.10;3.70;;;;;;;29.97;51.29;101000.88;5054777;28;20029;-78
2023/07/16 09:57:02;;;;;;;6.88;3.22;;;;;;;30.06;52.09;101005.00;5059000;28;20416;-77
2023/07/16 09:59:30;;;;;;;20.42;3.88;;;;;;;29.91;54.24;101008.25;5067223;28;20082;-78
2023/07/16 10:01:59;;;;;;;6.13;3.20;;;;;;;29.89;52.75;100999.34;5067440;28;20029;-80
2023/07/16 10:04:24;;;;;;;15.23;4.18;;;;;;;29.93;54.41;100994.16;5062607;28;20044;-85
2023/07/16 10:06:55;;;;;;;6.28;3.25;;;;;;;30.08;54.15;100998.13;5052164;28;20450;-88
2023/07/16 10:09:36;;;;;;;9.57;4.13;;;;;;;29.98;53.67;100995.09;5047973;28;20028;-83
2023/07/16 10:12:14;;;;;;;12.48;3.97;;;;;;;29.78;53.00;100997.41;5049207;28;20024;-80
2023/07/16 10:14:45;;;;;;;16.45;6.07;;;;;;;29.82;54.35;100998.63;5046632;28;20044;-80
2023/07/16 10:17:23;;;;;;;17.63;7.70;;;;;;;29.91;53.21;101005.47;5047648;28;20115;-78
2023/07/16 10:20:08;;;;;;;10.48;3.80;;;;;;;29.76;54.85;101005.09;5048086;28;20081;-82
2023/07/16 10:22:39;;;;;;;8.60;3.55;;;;;;;29.73;54.50;101010.28;5048953;28;20029;-82
2023/07/16 10:25:17;;;;;;;7.00;3.15;;;;;;;29.91;55.45;101001.84;5048483;28;20032;-84
2023/07/16 10:27:43;;;;;;;10.25;3.63;;;;;;;30.04;55.41;101008.00;5055991;28;20033;-89
2023/07/16 10:30:08;;;;;;;12.35;3.00;;;;;;;30.04;53.03;101002.47;5061664;28;20543;-94
2023/07/16 10:32:34;;;;;;;9.60;3.88;;;;;;;30.02;53.89;100988.00;5064019;28;20033;-92
2023/07/16 10:35:00;;;;;;;4.97;2.95;;;;;;;29.98;49.45;100997.88;5053346;28;20413;-85
2023/07/16 10:37:26;;;;;;;9.52;3.30;;;;;;;29.98;53.43;101002.59;5032365;28;20053;-85
2023/07/16 10:39:54;;;;;;;4.72;3.17;;;;;;;29.89;54.54;101004.88;5027627;28;20037;-80
2023/07/16 10:42:25;;;;;;;7.95;3.35;;;;;;;29.69;55.43;100996.88;5045575;28;20037;-82
2023/07/16 10:44:53;;;;;;;8.93;3.33;;;;;;;29.68;55.67;100986.91;5056411;28;20029;-88
2023/07/16 10:47:24;;;;;;;8.45;3.97;;;;;;;29.87;56.25;100995.97;5068977;28;20271;-84
2023/07/16 10:49:54;;;;;;;7.78;3.17;;;;;;;30.08;54.90;101000.91;5055742;28;20037;-85
2023/07/16 10:52:23;;;;;;;7.97;4.10;;;;;;;30.17;56.10;101001.34;5054678;28;20116;-81
2023/07/16 10:54:50;;;;;;;8.13;2.85;;;;;;;30.11;57.72;100986.53;5067213;28;20051;-81
2023/07/16 10:57:16;;;;;;;5.80;3.50;;;;;;;29.99;58.45;100995.97;5071579;28;20029;-87
2023/07/16 10:59:45;;;;;;;14.27;3.95;;;;;;;30.10;57.53;100983.97;5074252;28;20017;-86
2023/07/16 11:02:13;;;;;;;4.43;2.67;;;;;;;30.19;55.65;100986.13;5071828;28;20147;-83
2023/07/16 11:04:39;;;;;;;7.65;3.17;;;;;;;30.23;55.75;100998.44;5060328;28;20064;-79
2023/07/16 11:07:11;;;;;;;6.53;3.45;;;;;;;30.16;55.31;100983.00;5060684;28;20075;-81
2023/07/16 11:09:44;;;;;;;6.03;3.42;;;;;;;30.05;55.52;100990.28;5057579;28;20017;-79
2023/07/16 11:12:12;;;;;;;7.25;3.10;;;;;;;29.96;54.46;100972.31;5063351;28;20040;-79
2023/07/16 11:14:39;;;;;;;7.15;4.10;;;;;;;30.02;55.44;100992.69;5071332;28;20535;-80
2023/07/16 11:17:08;;;;;;;10.95;4.55;;;;;;;29.93;56.03;100978.38;5070418;28;20044;-80